Time;durP1;ratioP1;P1;durP2;ratioP2;P2;SDS_P1;SDS_P2;PMS_P1;PMS_P2;Temp;Humidity;BMP_temperature;BMP_pressure;BME280_temperature;BME280_humidity;BME280_pressure;Samples;Min_cycle;Max_cycle;Signal;HPM_P1;HPM_P2
2021/11/14 00:00:26;;;;;;;8.60;7.70;;;;;;;6.73;100.00;100882.03;680692;28;1092;-53
2021/11/14 00:00:53;;;;;;;9.05;7.70;;;;;;;6.72;100.00;100888.06;681219;28;1073;-51
2021/11/14 00:01:15;;;;;;;9.13;7.68;;;;;;;6.73;100.00;100883.72;680462;28;3482;-50
2021/11/14 00:01:38;;;;;;;9.63;8.07;;;;;;;6.71;100.00;100880.25;679978;28;4389;-49
2021/11/14 00:01:59;;;;;;;9.68;7.90;;;;;;;6.71;100.00;100891.50;680453;28;1302;-51
2021/11/14 00:02:19;;;;;;;10.05;7.82;;;;;;;6.70;100.00;100887.19;681396;28;1344;-50
2021/11/14 00:02:40;;;;;;;9.77;7.97;;;;;;;6.70;100.00;100884.59;680008;28;1089;-51
2021/11/14 00:03:02;;;;;;;9.35;7.82;;;;;;;6.70;100.00;100889.78;680455;28;1690;-50
2021/11/14 00:03:23;;;;;;;9.50;7.93;;;;;;;6.70;100.00;100894.97;678930;28;1911;-53
2021/11/14 00:03:43;;;;;;;10.52;8.27;;;;;;;6.70;100.00;100889.78;678408;29;1303;-50
2021/11/14 00:04:04;;;;;;;11.40;8.47;;;;;;;6.71;100.00;100888.03;676446;29;2242;-51
2021/11/14 00:04:24;;;;;;;9.57;8.00;;;;;;;6.69;100.00;100880.22;678032;29;3395;-50
2021/11/14 00:04:48;;;;;;;9.65;7.90;;;;;;;6.69;100.00;100885.44;679420;28;4435;-50
2021/11/14 00:05:08;;;;;;;10.25;8.00;;;;;;;6.69;100.00;100888.03;680903;28;1160;-50
2021/11/14 00:05:29;;;;;;;9.63;8.13;;;;;;;6.69;100.00;100888.03;681389;28;1054;-51
2021/11/14 00:05:52;;;;;;;10.03;8.70;;;;;;;6.70;100.00;100889.78;681520;28;1258;-53
2021/11/14 00:06:14;;;;;;;9.98;8.70;;;;;;;6.70;100.00;100894.09;681480;28;1177;-50
2021/11/14 00:06:35;;;;;;;9.40;8.40;;;;;;;6.70;100.00;100888.88;681529;28;1270;-49
2021/11/14 00:06:55;;;;;;;9.63;8.50;;;;;;;6.70;100.00;100888.88;681060;28;1406;-51
2021/11/14 00:07:19;;;;;;;9.93;8.70;;;;;;;6.70;100.00;100892.38;679300;29;3611;-50
2021/11/14 00:07:40;;;;;;;10.88;8.98;;;;;;;6.70;100.00;100886.28;677446;28;4480;-54
2021/11/14 00:08:00;;;;;;;11.00;8.83;;;;;;;6.70;100.00;100882.00;678223;29;1309;-51
2021/11/14 00:08:21;;;;;;;10.47;8.60;;;;;;;6.70;100.00;100888.88;678570;29;1616;-50
2021/11/14 00:08:41;;;;;;;10.25;8.98;;;;;;;6.69;100.00;100893.22;679584;28;1139;-50
2021/11/14 00:09:03;;;;;;;10.52;8.75;;;;;;;6.70;100.00;100894.97;678757;29;1736;-52
2021/11/14 00:09:23;;;;;;;10.60;8.25;;;;;;;6.69;100.00;100885.44;678370;29;1215;-51
2021/11/14 00:09:45;;;;;;;10.15;8.20;;;;;;;6.71;100.00;100890.66;678767;29;1260;-51
2021/11/14 00:10:06;;;;;;;9.98;8.25;;;;;;;6.71;100.00;100891.50;678142;29;3207;-50
2021/11/14 00:10:27;;;;;;;9.93;8.40;;;;;;;6.70;100.00;100889.78;678162;29;1340;-51
2021/11/14 00:10:53;;;;;;;10.20;8.23;;;;;;;6.71;100.00;100886.31;678188;28;4452;-50
2021/11/14 00:11:16;;;;;;;9.90;8.30;;;;;;;6.71;100.00;100896.69;681668;28;1292;-52
2021/11/14 00:11:36;;;;;;;11.63;8.85;;;;;;;6.70;100.00;100892.38;681225;28;1540;-50
2021/11/14 00:11:57;;;;;;;12.32;8.95;;;;;;;6.71;100.00;100888.03;679506;28;1399;-51
2021/11/14 00:12:17;;;;;;;9.57;8.45;;;;;;;6.70;100.00;100884.59;679512;28;1065;-50
2021/11/14 00:12:39;;;;;;;9.83;8.50;;;;;;;6.71;100.00;100885.44;682441;28;1202;-50
2021/11/14 00:12:59;;;;;;;10.93;8.57;;;;;;;6.72;100.00;100890.66;680956;28;3379;-52
2021/11/14 00:13:20;;;;;;;10.67;8.53;;;;;;;6.71;100.00;100890.66;680223;28;3540;-50
2021/11/14 00:13:42;;;;;;;9.65;8.40;;;;;;;6.70;100.00;100887.19;680192;28;4632;-50
2021/11/14 00:14:03;;;;;;;10.55;8.52;;;;;;;6.71;100.00;100890.66;680941;28;1089;-50
2021/11/14 00:14:24;;;;;;;10.35;8.30;;;;;;;6.71;100.00;100893.25;679851;28;1136;-52
2021/11/14 00:14:44;;;;;;;10.48;8.52;;;;;;;6.70;100.00;100887.19;680651;28;1107;-51
2021/11/14 00:15:06;;;;;;;10.93;8.50;;;;;;;6.70;100.00;100887.19;679917;28;1426;-50
2021/11/14 00:15:27;;;;;;;10.13;8.13;;;;;;;6.70;100.00;100887.19;680982;28;1713;-51
2021/11/14 00:15:47;;;;;;;10.20;7.85;;;;;;;6.71;100.00;100891.50;679868;28;1323;-50
2021/11/14 00:16:10;;;;;;;9.63;7.80;;;;;;;6.72;100.00;100888.06;680038;28;3414;-52
2021/11/14 00:16:31;;;;;;;9.93;7.97;;;;;;;6.71;100.00;100891.50;680504;28;1247;-50
2021/11/14 00:16:52;;;;;;;9.67;7.80;;;;;;;6.71;100.00;100888.91;680376;28;4532;-51
2021/11/14 00:17:14;;;;;;;9.97;7.90;;;;;;;6.72;100.00;100893.25;683061;28;1446;-51
2021/11/14 00:17:36;;;;;;;9.43;7.78;;;;;;;6.71;100.00;100888.03;681205;28;1461;-50
2021/11/14 00:17:57;;;;;;;10.05;7.95;;;;;;;6.71;100.00;100888.91;679108;28;1427;-50
2021/11/14 00:18:17;;;;;;;10.17;8.03;;;;;;;6.71;100.00;100888.91;680524;28;1132;-50
2021/11/14 00:18:42;;;;;;;9.93;8.30;;;;;;;6.73;100.00;100888.94;680931;28;1203;-52
2021/11/14 00:19:03;;;;;;;9.20;7.95;;;;;;;6.73;100.00;100895.00;681306;28;3357;-53
2021/11/14 00:19:24;;;;;;;9.57;7.97;;;;;;;6.74;100.00;100890.69;680743;28;3514;-52
2021/11/14 00:19:44;;;;;;;9.40;8.20;;;;;;;6.73;100.00;100895.00;680029;28;4792;-50
2021/11/14 00:20:10;;;;;;;9.47;7.80;;;;;;;6.74;100.00;100891.56;680140;28;1066;-52
2021/11/14 00:20:31;;;;;;;9.68;8.18;;;;;;;6.73;100.00;100889.81;680840;28;1691;-51
2021/11/14 00:20:52;;;;;;;10.38;8.20;;;;;;;6.74;100.00;100891.56;681790;28;1395;-52
2021/11/14 00:21:15;;;;;;;10.23;8.10;;;;;;;6.72;100.00;100890.66;680435;28;1334;-50
2021/11/14 00:21:40;;;;;;;10.57;8.20;;;;;;;6.73;100.00;100884.63;681033;28;1322;-53
2021/11/14 00:22:00;;;;;;;10.52;8.10;;;;;;;6.74;100.00;100891.56;680691;28;3243;-50
2021/11/14 00:22:21;;;;;;;10.50;8.40;;;;;;;6.74;100.00;100891.56;680377;28;1251;-50
2021/11/14 00:22:41;;;;;;;9.77;8.03;;;;;;;6.74;100.00;100896.78;680053;28;5425;-51
2021/11/14 00:23:03;;;;;;;10.85;8.20;;;;;;;6.73;100.00;100900.22;680040;28;1276;-51
2021/11/14 00:23:23;;;;;;;10.98;8.40;;;;;;;6.72;100.00;100890.66;679882;29;2009;-51
2021/11/14 00:23:44;;;;;;;10.20;8.00;;;;;;;6.73;100.00;100888.94;679260;29;1022;-52
2021/11/14 00:24:04;;;;;;;10.60;8.30;;;;;;;6.73;100.00;100897.63;678728;28;1085;-51
2021/11/14 00:24:25;;;;;;;10.33;8.20;;;;;;;6.71;100.00;100888.91;679762;28;1158;-51
2021/11/14 00:24:45;;;;;;;9.52;7.85;;;;;;;6.71;100.00;100886.31;681138;28;3325;-51
2021/11/14 00:25:08;;;;;;;9.87;7.63;;;;;;;6.73;100.00;100889.81;682612;28;4129;-50
2021/11/14 00:25:28;;;;;;;11.45;8.07;;;;;;;6.72;100.00;100889.81;683257;28;1505;-51
2021/11/14 00:25:49;;;;;;;10.67;8.07;;;;;;;6.73;100.00;100892.41;682806;28;5352;-51
2021/11/14 00:26:09;;;;;;;10.20;7.90;;;;;;;6.73;100.00;100888.94;683618;28;1215;-52
2021/11/14 00:26:30;;;;;;;9.40;7.85;;;;;;;6.73;100.00;100888.94;683601;28;1299;-50
2021/11/14 00:26:50;;;;;;;10.27;7.93;;;;;;;6.73;100.00;100894.13;680775;28;1367;-52
2021/11/14 00:27:11;;;;;;;9.88;8.23;;;;;;;6.73;100.00;100891.53;679877;28;1441;-51
2021/11/14 00:27:32;;;;;;;11.10;8.60;;;;;;;6.73;100.00;100889.81;680936;28;1315;-51
2021/11/14 00:27:53;;;;;;;11.65;8.20;;;;;;;6.73;100.00;100888.94;678174;29;3495;-53
2021/11/14 00:28:20;;;;;;;11.75;7.88;;;;;;;6.73;100.00;100896.72;679331;28;1652;-50
2021/11/14 00:28:46;;;;;;;11.02;8.10;;;;;;;6.72;100.00;100898.47;676906;29;4462;-52
2021/11/14 00:29:08;;;;;;;11.90;8.20;;;;;;;6.73;100.00;100894.13;677531;29;1450;-51
2021/11/14 00:29:29;;;;;;;12.60;8.15;;;;;;;6.73;100.00;100892.41;675260;29;1215;-50
2021/11/14 00:29:50;;;;;;;13.90;8.05;;;;;;;6.73;100.00;100895.00;677453;29;1296;-52
2021/11/14 00:30:12;;;;;;;11.05;8.20;;;;;;;6.74;100.00;100894.19;674134;29;1287;-54
2021/11/14 00:30:33;;;;;;;11.37;8.50;;;;;;;6.74;100.00;100899.38;674473;29;1269;-50
2021/11/14 00:30:53;;;;;;;15.80;8.60;;;;;;;6.75;100.00;100900.22;675274;29;1976;-51
2021/11/14 00:31:17;;;;;;;14.53;8.10;;;;;;;6.74;100.00;100894.19;674593;29;1422;-51
2021/11/14 00:31:38;;;;;;;10.07;7.97;;;;;;;6.75;100.00;100898.50;677608;28;4578;-50
2021/11/14 00:31:58;;;;;;;10.68;8.38;;;;;;;6.74;100.00;100894.19;679349;28;1172;-55
2021/11/14 00:32:19;;;;;;;10.50;7.97;;;;;;;6.74;100.00;100896.78;679841;28;1554;-49
2021/11/14 00:32:41;;;;;;;10.93;8.07;;;;;;;6.75;100.00;100892.44;680003;29;1252;-51
2021/11/14 00:33:03;;;;;;;11.82;8.13;;;;;;;6.75;100.00;100895.03;679939;29;1279;-52
2021/11/14 00:33:23;;;;;;;10.77;8.35;;;;;;;6.75;100.00;100893.31;679464;28;1113;-50
2021/11/14 00:33:46;;;;;;;10.15;8.18;;;;;;;6.76;100.00;100891.59;680350;29;3120;-51
2021/11/14 00:34:07;;;;;;;9.77;7.90;;;;;;;6.76;100.00;100897.66;679574;29;3831;-52
2021/11/14 00:34:28;;;;;;;11.20;8.32;;;;;;;6.76;100.00;100902.00;680276;28;1304;-49
2021/11/14 00:34:51;;;;;;;11.10;8.40;;;;;;;6.74;100.00;100894.19;680583;28;4505;-51
2021/11/14 00:35:13;;;;;;;11.63;8.48;;;;;;;6.74;100.00;100896.78;680612;28;1161;-51
2021/11/14 00:35:34;;;;;;;11.82;8.90;;;;;;;6.74;100.00;100893.28;679751;29;1181;-51
2021/11/14 00:35:54;;;;;;;11.27;8.95;;;;;;;6.74;100.00;100895.88;680775;28;1086;-50
2021/11/14 00:36:20;;;;;;;10.70;8.67;;;;;;;6.73;100.00;100900.22;680010;28;1473;-55
2021/11/14 00:36:42;;;;;;;10.52;8.35;;;;;;;6.74;100.00;100899.38;679995;29;3046;-50
2021/11/14 00:37:03;;;;;;;11.10;8.32;;;;;;;6.74;100.00;100898.47;680688;28;1489;-50
2021/11/14 00:37:24;;;;;;;11.68;8.55;;;;;;;6.74;100.00;100896.78;683141;28;1291;-50
2021/11/14 00:37:45;;;;;;;12.37;8.87;;;;;;;6.74;100.00;100901.97;682996;28;4519;-50
2021/11/14 00:38:06;;;;;;;12.27;8.63;;;;;;;6.74;100.00;100898.47;682885;28;1219;-50
2021/11/14 00:38:26;;;;;;;11.85;8.52;;;;;;;6.73;100.00;100900.22;683185;28;1366;-51
2021/11/14 00:38:48;;;;;;;11.48;8.60;;;;;;;6.74;100.00;100907.16;683165;28;1243;-50
2021/11/14 00:39:12;;;;;;;11.60;9.05;;;;;;;6.73;100.00;100899.31;685271;28;1152;-52
2021/11/14 00:39:33;;;;;;;11.45;8.80;;;;;;;6.74;100.00;100906.28;684528;28;2001;-53
2021/11/14 00:39:53;;;;;;;11.13;8.60;;;;;;;6.74;100.00;100903.66;685117;28;4383;-52
2021/11/14 00:40:22;;;;;;;11.33;8.53;;;;;;;6.75;100.00;100902.84;685696;28;1012;-51
2021/11/14 00:40:42;;;;;;;10.07;8.38;;;;;;;6.75;100.00;100900.22;685100;28;4520;-51
2021/11/14 00:41:03;;;;;;;11.05;8.65;;;;;;;6.74;100.00;100898.47;683837;28;1263;-51
2021/11/14 00:41:25;;;;;;;11.63;8.80;;;;;;;6.74;100.00;100901.97;679462;29;1693;-50
2021/11/14 00:41:48;;;;;;;10.90;8.50;;;;;;;6.74;100.00;100904.56;679742;29;1240;-50
2021/11/14 00:42:08;;;;;;;11.85;8.63;;;;;;;6.75;100.00;100906.28;682066;28;1311;-50
2021/11/14 00:42:29;;;;;;;11.70;8.60;;;;;;;6.75;100.00;100897.63;681760;28;1354;-52
2021/11/14 00:42:50;;;;;;;12.73;8.90;;;;;;;6.76;100.00;100899.38;683721;28;3112;-51
2021/11/14 00:43:10;;;;;;;11.70;8.80;;;;;;;6.75;100.00;100903.69;682327;28;1988;-50
2021/11/14 00:43:31;;;;;;;10.67;8.57;;;;;;;6.75;100.00;100901.09;683427;28;1495;-55
2021/11/14 00:43:53;;;;;;;10.80;8.68;;;;;;;6.77;100.00;100906.31;681569;28;4428;-52
2021/11/14 00:44:14;;;;;;;10.65;8.38;;;;;;;6.76;100.00;100902.00;682234;28;994;-51
2021/11/14 00:44:34;;;;;;;10.27;8.15;;;;;;;6.77;100.00;100902.00;682325;28;1168;-50
2021/11/14 00:44:54;;;;;;;9.90;8.27;;;;;;;6.79;100.00;100899.44;680167;29;1168;-51
2021/11/14 00:45:15;;;;;;;10.65;8.45;;;;;;;6.78;100.00;100898.56;679825;29;1003;-51
2021/11/14 00:45:37;;;;;;;10.48;8.40;;;;;;;6.78;100.00;100900.28;677769;29;3468;-52
2021/11/14 00:45:57;;;;;;;10.43;8.65;;;;;;;6.77;100.00;100902.00;677304;29;3856;-53
2021/11/14 00:46:18;;;;;;;11.10;8.82;;;;;;;6.77;100.00;100903.72;675360;29;1201;-51
2021/11/14 00:46:41;;;;;;;10.35;8.65;;;;;;;6.76;100.00;100895.06;673715;29;4503;-51
2021/11/14 00:47:01;;;;;;;10.68;8.50;;;;;;;6.76;100.00;100895.06;676791;29;1388;-51
2021/11/14 00:47:22;;;;;;;11.03;8.20;;;;;;;6.75;100.00;100898.50;677396;29;1341;-50
2021/11/14 00:47:43;;;;;;;10.63;8.23;;;;;;;6.76;100.00;100900.25;680385;29;1173;-50
2021/11/14 00:48:04;;;;;;;10.55;8.52;;;;;;;6.76;100.00;100896.78;679465;29;1399;-52
2021/11/14 00:48:24;;;;;;;11.15;8.38;;;;;;;6.76;100.00;100900.25;680767;28;1268;-50
2021/11/14 00:48:45;;;;;;;11.55;8.68;;;;;;;6.76;100.00;100897.66;679371;28;3710;-50
2021/11/14 00:49:06;;;;;;;10.47;8.60;;;;;;;6.77;100.00;100896.81;683370;28;1200;-54
2021/11/14 00:49:27;;;;;;;11.65;8.25;;;;;;;6.76;100.00;100897.66;682930;28;1122;-54
2021/11/14 00:49:49;;;;;;;11.07;8.25;;;;;;;6.75;100.00;100898.50;681864;28;4369;-50
2021/11/14 00:50:11;;;;;;;10.25;8.23;;;;;;;6.75;100.00;100903.69;681968;28;1414;-50
2021/11/14 00:50:32;;;;;;;10.98;8.45;;;;;;;6.75;100.00;100898.50;683771;28;1271;-51
2021/11/14 00:50:53;;;;;;;10.65;8.68;;;;;;;6.76;100.00;100904.59;682210;28;1215;-50
2021/11/14 00:51:17;;;;;;;10.27;8.10;;;;;;;6.76;100.00;100907.19;683042;28;1365;-50
2021/11/14 00:51:38;;;;;;;9.73;8.27;;;;;;;6.74;100.00;100904.56;681407;28;3532;-53
2021/11/14 00:51:59;;;;;;;11.10;8.50;;;;;;;6.75;100.00;100901.09;680982;28;1235;-53
2021/11/14 00:52:19;;;;;;;11.98;8.60;;;;;;;6.74;100.00;100904.56;680273;28;1094;-50
2021/11/14 00:52:42;;;;;;;11.67;8.37;;;;;;;6.75;100.00;100906.28;679099;28;4374;-50
2021/11/14 00:53:02;;;;;;;11.50;8.50;;;;;;;6.74;100.00;100903.66;679688;28;1410;-51
2021/11/14 00:53:23;;;;;;;10.20;8.35;;;;;;;6.73;100.00;100908.00;680797;28;1129;-52
2021/11/14 00:53:43;;;;;;;12.13;8.70;;;;;;;6.73;100.00;100904.50;680474;28;1439;-51
2021/11/14 00:54:05;;;;;;;11.15;8.43;;;;;;;6.73;100.00;100904.50;681626;28;1371;-53
2021/11/14 00:54:25;;;;;;;10.55;8.65;;;;;;;6.73;100.00;100905.41;681325;28;3230;-52
2021/11/14 00:54:45;;;;;;;11.00;8.37;;;;;;;6.73;100.00;100905.41;680698;29;3844;-51
2021/11/14 00:55:07;;;;;;;10.40;8.30;;;;;;;6.72;100.00;100898.47;683083;28;1170;-50
2021/11/14 00:55:31;;;;;;;11.25;8.60;;;;;;;6.73;100.00;100904.50;683372;28;1533;-51
2021/11/14 00:55:52;;;;;;;11.20;8.70;;;;;;;6.72;100.00;100902.78;681877;28;4682;-51
2021/11/14 00:56:12;;;;;;;10.90;8.13;;;;;;;6.71;100.00;100909.69;683663;28;1243;-51
2021/11/14 00:56:33;;;;;;;11.70;8.27;;;;;;;6.73;100.00;100904.50;683287;28;1375;-50
2021/11/14 00:56:54;;;;;;;11.07;8.20;;;;;;;6.73;100.00;100902.81;682151;28;1367;-51
2021/11/14 00:57:14;;;;;;;10.43;8.67;;;;;;;6.73;100.00;100908.00;681164;28;1307;-51
2021/11/14 00:57:35;;;;;;;10.25;8.40;;;;;;;6.74;100.00;100903.66;681101;28;4201;-51
2021/11/14 00:57:55;;;;;;;10.70;8.30;;;;;;;6.74;100.00;100907.16;681371;28;1185;-51
2021/11/14 00:58:16;;;;;;;9.73;8.07;;;;;;;6.74;100.00;100903.66;682753;28;1299;-53
2021/11/14 00:58:38;;;;;;;9.70;8.07;;;;;;;6.73;100.00;100897.63;683134;28;4331;-51
2021/11/14 00:58:58;;;;;;;9.80;8.13;;;;;;;6.74;100.00;100901.06;683313;28;1040;-52
2021/11/14 00:59:19;;;;;;;10.97;8.47;;;;;;;6.73;100.00;100905.41;681341;28;1409;-50
2021/11/14 00:59:39;;;;;;;10.90;8.63;;;;;;;6.72;100.00;100901.06;680407;29;1105;-51
2021/11/14 01:00:00;;;;;;;10.97;8.50;;;;;;;6.72;100.00;100906.25;680688;29;1154;-51
2021/11/14 01:00:24;;;;;;;10.55;8.32;;;;;;;6.74;100.00;100896.78;679568;28;3160;-50
2021/11/14 01:00:44;;;;;;;10.05;8.30;;;;;;;6.74;100.00;100901.97;677552;29;3399;-51
2021/11/14 01:01:05;;;;;;;11.25;8.50;;;;;;;6.75;100.00;100908.88;677928;29;1256;-51
2021/11/14 01:01:26;;;;;;;11.63;8.73;;;;;;;6.73;100.00;100905.41;680603;29;1303;-50
2021/11/14 01:01:46;;;;;;;12.02;8.70;;;;;;;6.73;100.00;100900.22;680153;28;4468;-50
2021/11/14 01:02:07;;;;;;;10.88;8.50;;;;;;;6.74;100.00;100901.97;680142;29;1450;-51
2021/11/14 01:02:27;;;;;;;10.43;8.30;;;;;;;6.74;100.00;100903.66;679621;29;1276;-51
2021/11/14 01:02:48;;;;;;;11.52;9.07;;;;;;;6.73;100.00;100902.81;681077;28;1133;-51
2021/11/14 01:03:09;;;;;;;10.90;8.60;;;;;;;6.73;100.00;100905.41;679974;29;1982;-51
2021/11/14 01:03:29;;;;;;;12.02;8.60;;;;;;;6.74;100.00;100908.88;680796;28;3837;-51
2021/11/14 01:03:52;;;;;;;11.70;8.47;;;;;;;6.73;100.00;100902.81;681845;28;1664;-50
2021/11/14 01:04:12;;;;;;;11.60;8.48;;;;;;;6.74;100.00;100906.28;680416;29;1131;-50
2021/11/14 01:04:33;;;;;;;12.35;8.48;;;;;;;6.74;100.00;100896.78;680745;28;1169;-50
2021/11/14 01:04:53;;;;;;;11.13;8.35;;;;;;;6.74;100.00;100907.16;680884;28;4294;-50
2021/11/14 01:05:16;;;;;;;11.33;8.57;;;;;;;6.74;100.00;100907.16;680418;28;1058;-50
2021/11/14 01:05:40;;;;;;;9.70;8.20;;;;;;;6.75;100.00;100905.44;680781;29;1192;-51
2021/11/14 01:06:01;;;;;;;10.32;8.20;;;;;;;6.76;100.00;100904.59;680599;29;1319;-51
2021/11/14 01:06:21;;;;;;;10.27;8.53;;;;;;;6.77;100.00;100906.31;680780;28;1974;-51
2021/11/14 01:06:42;;;;;;;9.90;8.35;;;;;;;6.76;100.00;100908.03;683326;28;4131;-50
2021/11/14 01:07:02;;;;;;;10.20;8.50;;;;;;;6.75;100.00;100903.69;683967;28;934;-50
2021/11/14 01:07:23;;;;;;;11.00;8.75;;;;;;;6.76;100.00;100904.59;683725;28;1372;-51
2021/11/14 01:07:44;;;;;;;11.97;9.07;;;;;;;6.77;100.00;100912.41;682928;28;4758;-51
2021/11/14 01:08:04;;;;;;;11.48;8.70;;;;;;;6.76;100.00;100902.84;682839;28;1179;-52
2021/11/14 01:08:28;;;;;;;11.13;8.52;;;;;;;6.76;100.00;100902.84;679599;29;1375;-51
2021/11/14 01:08:49;;;;;;;10.40;8.48;;;;;;;6.77;100.00;100907.19;681124;29;1282;-50
2021/11/14 01:09:09;;;;;;;9.63;8.10;;;;;;;6.78;100.00;100905.47;681329;28;1287;-52
2021/11/14 01:09:30;;;;;;;10.02;8.30;;;;;;;6.78;100.00;100905.47;678063;29;3061;-52
2021/11/14 01:09:50;;;;;;;11.00;8.63;;;;;;;6.78;100.00;100903.75;678003;29;3098;-54
2021/11/14 01:10:15;;;;;;;9.75;8.20;;;;;;;6.78;100.00;100908.06;677606;29;1370;-52
2021/11/14 01:10:39;;;;;;;10.65;8.10;;;;;;;6.77;100.00;100901.13;680382;29;1232;-54
2021/11/14 01:11:02;;;;;;;11.85;8.55;;;;;;;6.77;100.00;100899.41;680189;29;4932;-52
2021/11/14 01:11:25;;;;;;;11.10;8.38;;;;;;;6.78;100.00;100905.47;681094;29;1263;-52
2021/11/14 01:11:45;;;;;;;9.57;8.00;;;;;;;6.78;100.00;100903.75;681297;28;1282;-54
2021/11/14 01:12:09;;;;;;;9.43;7.80;;;;;;;6.80;100.00;100906.38;681156;29;1122;-51
2021/11/14 01:12:29;;;;;;;11.43;7.90;;;;;;;6.80;100.00;100906.38;680584;28;3324;-50
2021/11/14 01:12:50;;;;;;;11.03;7.93;;;;;;;6.81;100.00;100909.00;680685;28;1086;-49
2021/11/14 01:13:10;;;;;;;9.93;7.68;;;;;;;6.81;100.00;100903.81;681329;28;1354;-49
2021/11/14 01:13:35;;;;;;;9.98;7.70;;;;;;;6.81;100.00;100903.81;680552;28;1279;-49
2021/11/14 01:13:56;;;;;;;9.18;8.10;;;;;;;6.81;100.00;100906.41;679358;28;4420;-49
2021/11/14 01:14:16;;;;;;;10.90;8.10;;;;;;;6.81;100.00;100903.81;681454;28;1270;-50
2021/11/14 01:14:37;;;;;;;10.02;8.10;;;;;;;6.80;100.00;100907.25;681006;29;1122;-50
2021/11/14 01:14:57;;;;;;;10.02;8.07;;;;;;;6.80;100.00;100908.97;680547;28;1118;-50
2021/11/14 01:15:19;;;;;;;9.50;7.50;;;;;;;6.80;100.00;100906.38;680997;28;3157;-54
2021/11/14 01:15:41;;;;;;;11.70;7.65;;;;;;;6.81;100.00;100908.09;680227;29;1234;-51
2021/11/14 01:16:03;;;;;;;9.75;7.78;;;;;;;6.80;100.00;100906.38;683503;28;1217;-50
2021/11/14 01:16:24;;;;;;;9.50;7.70;;;;;;;6.80;100.00;100908.97;682857;28;1241;-51
2021/11/14 01:16:45;;;;;;;9.18;7.60;;;;;;;6.81;100.00;100905.50;682372;28;4400;-50
2021/11/14 01:17:05;;;;;;;10.23;7.93;;;;;;;6.79;100.00;100910.69;682958;28;1347;-50
2021/11/14 01:17:26;;;;;;;10.00;8.10;;;;;;;6.78;100.00;100908.97;682567;28;1319;-50
2021/11/14 01:17:47;;;;;;;9.52;8.00;;;;;;;6.79;100.00;100908.09;683109;28;1734;-51
2021/11/14 01:18:08;;;;;;;10.27;8.38;;;;;;;6.77;100.00;100909.81;678078;29;1204;-50
2021/11/14 01:18:29;;;;;;;10.18;8.45;;;;;;;6.77;100.00;100912.41;678436;29;2588;-50
2021/11/14 01:18:49;;;;;;;9.63;8.10;;;;;;;6.76;100.00;100908.03;677571;29;1353;-49
2021/11/14 01:19:10;;;;;;;10.07;8.30;;;;;;;6.76;100.00;100907.19;680156;29;1268;-53
2021/11/14 01:19:30;;;;;;;10.00;8.40;;;;;;;6.77;100.00;100911.50;680256;28;1168;-51
2021/11/14 01:19:51;;;;;;;10.88;8.35;;;;;;;6.75;100.00;100910.63;683012;28;4461;-50
2021/11/14 01:20:15;;;;;;;10.67;8.33;;;;;;;6.77;100.00;100911.50;686460;28;1121;-49
2021/11/14 01:20:39;;;;;;;10.10;8.30;;;;;;;6.77;100.00;100914.09;686182;28;1215;-49
2021/11/14 01:21:02;;;;;;;10.02;8.25;;;;;;;6.74;100.00;100909.75;683865;28;1224;-49
2021/11/14 01:21:24;;;;;;;9.70;7.90;;;;;;;6.74;100.00;100920.16;680858;28;3172;-51
2021/11/14 01:21:46;;;;;;;9.98;7.95;;;;;;;6.73;100.00;100912.31;686269;28;2059;-50
2021/11/14 01:22:06;;;;;;;10.82;8.40;;;;;;;6.71;100.00;100909.69;686512;28;1292;-51
2021/11/14 01:22:27;;;;;;;10.97;8.43;;;;;;;6.70;100.00;100910.56;685970;28;1302;-50
2021/11/14 01:22:48;;;;;;;9.93;8.20;;;;;;;6.70;100.00;100909.69;684934;28;4423;-50
2021/11/14 01:23:10;;;;;;;10.95;8.40;;;;;;;6.71;100.00;100917.50;686200;28;1937;-52
2021/11/14 01:23:31;;;;;;;10.00;8.25;;;;;;;6.71;100.00;100916.63;684471;28;1256;-51
2021/11/14 01:23:53;;;;;;;9.15;8.02;;;;;;;6.73;100.00;100913.22;681665;28;1184;-50
2021/11/14 01:24:16;;;;;;;10.27;7.95;;;;;;;6.74;100.00;100914.97;680349;28;3397;-50
2021/11/14 01:24:37;;;;;;;10.00;8.13;;;;;;;6.75;100.00;100915.81;681144;29;1282;-50
2021/11/14 01:24:57;;;;;;;10.52;8.60;;;;;;;6.75;100.00;100915.81;679779;28;3979;-51
2021/11/14 01:25:19;;;;;;;11.43;8.20;;;;;;;6.77;100.00;100916.69;680491;28;1266;-51
2021/11/14 01:25:40;;;;;;;11.65;8.38;;;;;;;6.76;100.00;100914.97;681483;28;4614;-51
2021/11/14 01:26:01;;;;;;;9.70;8.70;;;;;;;6.76;100.00;100920.19;681205;29;1221;-50
2021/11/14 01:26:22;;;;;;;10.10;8.48;;;;;;;6.76;100.00;100918.44;680885;28;1381;-58
2021/11/14 01:26:43;;;;;;;12.57;8.82;;;;;;;6.76;100.00;100923.63;680611;29;1160;-50
2021/11/14 01:27:04;;;;;;;12.17;8.50;;;;;;;6.75;100.00;100927.06;681355;29;3658;-51
2021/11/14 01:27:24;;;;;;;10.35;8.60;;;;;;;6.76;100.00;100917.56;681034;28;4009;-50
2021/11/14 01:27:46;;;;;;;12.13;9.17;;;;;;;6.76;100.00;100921.03;681562;28;1430;-50
2021/11/14 01:28:06;;;;;;;13.73;8.43;;;;;;;6.77;100.00;100917.59;680700;28;1536;-51
2021/11/14 01:28:26;;;;;;;13.90;8.37;;;;;;;6.77;100.00;100920.19;681275;29;1490;-50
2021/11/14 01:28:48;;;;;;;13.23;8.40;;;;;;;6.76;100.00;100921.03;680896;28;4716;-52
2021/11/14 01:29:08;;;;;;;14.60;8.40;;;;;;;6.77;100.00;100921.91;680698;29;1139;-52
2021/11/14 01:29:29;;;;;;;14.75;9.27;;;;;;;6.76;100.00;100926.25;681359;29;1291;-51
2021/11/14 01:29:49;;;;;;;11.77;9.20;;;;;;;6.77;100.00;100921.91;681269;28;1266;-50
2021/11/14 01:30:16;;;;;;;9.75;8.35;;;;;;;6.78;100.00;100913.25;685420;28;1964;-51
2021/11/14 01:30:39;;;;;;;10.75;8.63;;;;;;;6.78;100.00;100923.66;685979;28;4151;-52
2021/11/14 01:31:00;;;;;;;11.32;8.65;;;;;;;6.77;100.00;100922.78;686393;28;1040;-50
2021/11/14 01:31:20;;;;;;;10.60;8.43;;;;;;;6.76;100.00;100923.63;685515;28;990;-51
2021/11/14 01:31:41;;;;;;;10.32;8.55;;;;;;;6.76;100.00;100923.63;685807;28;4602;-50
2021/11/14 01:32:02;;;;;;;10.88;8.38;;;;;;;6.77;100.00;100922.78;683828;28;1370;-51
2021/11/14 01:32:24;;;;;;;10.45;8.43;;;;;;;6.76;100.00;100926.25;681375;29;1085;-50
2021/11/14 01:32:44;;;;;;;10.18;8.38;;;;;;;6.76;100.00;100933.16;680962;29;1472;-53
2021/11/14 01:33:06;;;;;;;10.37;8.50;;;;;;;6.78;100.00;100928.84;680978;28;3583;-51
2021/11/14 01:33:29;;;;;;;10.50;8.65;;;;;;;6.77;100.00;100924.50;681471;28;2250;-51
2021/11/14 01:33:49;;;;;;;10.90;8.70;;;;;;;6.77;100.00;100922.78;680512;29;1215;-51
2021/11/14 01:34:09;;;;;;;10.87;8.73;;;;;;;6.76;100.00;100931.44;680768;29;1152;-50
2021/11/14 01:34:30;;;;;;;10.55;8.73;;;;;;;6.76;100.00;100925.38;678304;29;1252;-52
2021/11/14 01:34:50;;;;;;;10.90;8.50;;;;;;;6.76;100.00;100930.56;676527;28;4360;-55
2021/11/14 01:35:12;;;;;;;10.87;8.60;;;;;;;6.75;100.00;100926.22;678588;29;1311;-51
2021/11/14 01:35:35;;;;;;;13.02;8.65;;;;;;;6.77;100.00;100929.69;679772;29;1197;-52
2021/11/14 01:35:57;;;;;;;11.70;8.93;;;;;;;6.77;100.00;100927.09;679549;29;1172;-50
2021/11/14 01:36:17;;;;;;;11.18;9.15;;;;;;;6.75;100.00;100929.69;680552;29;3410;-51
2021/11/14 01:36:38;;;;;;;11.43;9.18;;;;;;;6.75;100.00;100932.28;681143;28;1280;-50
2021/11/14 01:36:58;;;;;;;10.67;8.83;;;;;;;6.74;100.00;100927.94;680903;28;1398;-50
2021/11/14 01:37:19;;;;;;;10.30;8.68;;;;;;;6.74;100.00;100927.94;680779;28;966;-51
2021/11/14 01:37:42;;;;;;;11.98;8.80;;;;;;;6.75;100.00;100923.63;680585;28;4613;-52
2021/11/14 01:38:05;;;;;;;11.68;8.90;;;;;;;6.75;100.00;100934.88;680631;29;1220;-50
2021/11/14 01:38:27;;;;;;;10.85;8.63;;;;;;;6.75;100.00;100929.69;680723;29;1886;-50
2021/11/14 01:38:47;;;;;;;13.63;8.90;;;;;;;6.76;100.00;100933.16;680072;29;1018;-50
2021/11/14 01:39:08;;;;;;;14.87;8.90;;;;;;;6.75;100.00;100921.03;682317;28;3472;-53
2021/11/14 01:39:28;;;;;;;13.05;8.65;;;;;;;6.75;100.00;100932.28;683885;28;1367;-51
2021/11/14 01:39:49;;;;;;;14.10;9.07;;;;;;;6.76;100.00;100931.44;683317;28;1142;-50
2021/11/14 01:40:12;;;;;;;13.40;8.63;;;;;;;6.75;100.00;100932.28;683044;28;1041;-50
2021/11/14 01:40:40;;;;;;;10.63;8.68;;;;;;;6.75;100.00;100934.88;683673;28;1229;-51
2021/11/14 01:41:07;;;;;;;10.80;8.70;;;;;;;6.76;100.00;100935.78;681003;28;5064;-50
2021/11/14 01:41:28;;;;;;;10.95;9.20;;;;;;;6.76;100.00;100936.63;681865;29;1105;-52